Time;durP1;ratioP1;P1;durP2;ratioP2;P2;SDS_P1;SDS_P2;PMS_P1;PMS_P2;Temp;Humidity;BMP_temperature;BMP_pressure;BME280_temperature;BME280_humidity;BME280_pressure;Samples;Min_cycle;Max_cycle;Signal;HPM_P1;HPM_P2
2022/06/02 00:01:28;;;;;;;;;1.00;1.00;;;;;17.88;39.58;101053.41;5056133;28;45834;-79
2022/06/02 00:04:08;;;;;;;;;2.00;2.00;;;;;17.81;39.81;101052.34;5056180;28;45563;-79
2022/06/02 00:07:24;;;;;;;;;2.00;2.00;;;;;17.84;39.68;101069.75;5056232;28;45854;-79
2022/06/02 00:10:00;;;;;;;;;1.75;1.75;;;;;17.80;39.70;101066.56;4977650;28;47449;-80
2022/06/02 00:12:28;;;;;;;;;2.75;2.00;;;;;17.79;39.68;101070.19;4994060;28;46187;-79
2022/06/02 00:18:26;;;;;;;;;2.00;2.00;;;;;17.75;39.97;101074.13;5007525;28;45945;-79
2022/06/02 00:20:57;;;;;;;;;2.25;2.25;;;;;17.77;39.97;101071.31;5013647;28;47039;-80
2022/06/02 00:23:35;;;;;;;;;2.00;2.00;;;;;17.76;39.79;101074.97;5013529;28;46020;-79
2022/06/02 00:26:18;;;;;;;;;4.25;3.00;;;;;17.76;40.02;101074.97;5013719;28;45682;-79
2022/06/02 00:32:31;;;;;;;;;3.00;2.00;;;;;17.67;40.36;101089.06;4993343;28;46203;-77
2022/06/02 00:35:24;;;;;;;;;2.75;2.75;;;;;17.68;40.69;101086.28;5000596;28;45846;-79
2022/06/02 00:38:11;;;;;;;;;3.25;3.00;;;;;17.65;40.22;101089.22;5012904;28;45699;-79
2022/06/02 00:40:36;;;;;;;;;3.00;3.00;;;;;17.54;40.32;101066.31;5013724;28;45755;-79
2022/06/02 00:43:20;;;;;;;;;3.00;3.00;;;;;17.52;40.71;101068.28;5013257;28;45582;-79
2022/06/02 00:45:51;;;;;;;;;3.75;3.75;;;;;17.48;40.81;101061.59;5026684;28;45794;-78
2022/06/02 00:48:44;;;;;;;;;2.00;2.00;;;;;17.53;40.48;101080.56;5035164;28;45886;-78
2022/06/02 00:51:18;;;;;;;;;3.00;3.00;;;;;17.37;40.63;101056.47;4992809;28;46430;-79
2022/06/02 01:00:12;;;;;;;;;2.00;2.00;;;;;17.47;41.27;101078.47;4993054;28;45730;-80
2022/06/02 01:02:56;;;;;;;;;3.00;3.00;;;;;17.41;41.02;101063.13;4993420;28;45713;-79
2022/06/02 01:05:40;;;;;;;;;3.50;3.25;;;;;17.42;41.38;101064.81;4993254;28;46543;-79
2022/06/02 01:08:32;;;;;;;;;3.75;3.00;;;;;17.43;41.16;101070.94;4977003;28;46270;-79
2022/06/02 01:11:15;;;;;;;;;4.00;3.50;;;;;17.40;41.11;101068.56;4993391;28;45881;-78
2022/06/02 01:17:36;;;;;;;;;3.00;3.00;;;;;17.29;41.44;101056.31;4987486;28;45677;-78
2022/06/02 01:20:08;;;;;;;;;3.00;3.00;;;;;17.33;41.65;101068.28;4973251;28;47866;-80
2022/06/02 01:22:43;;;;;;;;;4.00;3.00;;;;;17.31;41.71;101064.97;4973357;28;45862;-79
2022/06/02 01:25:27;;;;;;;;;3.00;3.00;;;;;17.29;41.96;101066.91;4973549;28;45765;-77
2022/06/02 01:28:22;;;;;;;;;5.00;4.00;;;;;17.28;41.88;101069.69;4993147;28;46067;-80
2022/06/02 01:31:34;;;;;;;;;4.25;3.50;;;;;17.26;41.98;101071.66;5034681;28;46263;-79
2022/06/02 01:34:11;;;;;;;;;3.00;3.00;;;;;17.23;42.05;101067.47;5034478;28;45625;-80
2022/06/02 01:37:11;;;;;;;;;4.00;3.00;;;;;17.20;42.27;101065.13;5016637;28;45944;-78
2022/06/02 01:40:02;;;;;;;;;3.00;3.00;;;;;17.17;42.55;101060.91;5034614;28;45581;-80
2022/06/02 01:43:00;;;;;;;;;3.75;3.00;;;;;17.14;42.61;101065.66;5036186;28;46627;-80
2022/06/02 01:48:53;;;;;;;;;4.00;4.00;;;;;17.07;42.64;101065.38;5034966;28;45625;-80
2022/06/02 01:51:52;;;;;;;;;4.00;4.00;;;;;17.05;42.57;101079.75;5037379;28;45619;-80
2022/06/02 01:54:42;;;;;;;;;4.00;4.00;;;;;17.04;42.54;101073.63;5045405;28;46245;-79
2022/06/02 01:57:45;;;;;;;;;5.25;5.00;;;;;17.03;42.73;101074.59;5041924;28;45518;-79
2022/06/02 02:00:15;;;;;;;;;4.00;4.00;;;;;17.04;42.71;101075.44;5019857;28;45498;-79
2022/06/02 02:03:04;;;;;;;;;5.00;5.00;;;;;17.00;42.96;101072.22;5034577;28;45867;-79
2022/06/02 02:05:52;;;;;;;;;4.00;4.00;;;;;17.01;42.91;101081.81;5034489;28;46536;-80
2022/06/02 02:08:36;;;;;;;;;5.00;5.00;;;;;17.00;42.92;101074.88;5034233;28;45931;-79
2022/06/02 02:11:42;;;;;;;;;8.00;5.00;;;;;16.92;42.98;101066.78;5034305;28;45435;-79
2022/06/02 02:17:59;;;;;;;;;4.00;4.00;;;;;16.93;42.97;101075.56;5042133;28;46000;-80
2022/06/02 02:20:37;;;;;;;;;5.25;5.25;;;;;16.90;43.17;101074.00;5054219;28;45638;-80
2022/06/02 02:23:19;;;;;;;;;4.75;4.75;;;;;16.82;43.17;101063.28;5054036;28;45436;-80
2022/06/02 02:25:52;;;;;;;;;4.50;4.50;;;;;16.86;43.21;101069.13;5045694;28;45637;-80
2022/06/02 02:28:56;;;;;;;;;4.00;4.00;;;;;16.84;43.60;101064.00;5053858;28;46341;-79
2022/06/02 02:35:00;;;;;;;;;6.00;5.25;;;;;16.72;43.73;101068.59;4991865;28;45727;-81
2022/06/02 02:37:36;;;;;;;;;6.25;6.00;;;;;16.68;43.80;101067.16;4991754;28;45875;-81
2022/06/02 02:40:07;;;;;;;;;8.00;6.50;;;;;16.64;43.99;101063.13;4991849;28;46008;-80
2022/06/02 02:42:51;;;;;;;;;5.00;5.00;;;;;16.62;44.20;101057.16;4991920;28;45657;-80
2022/06/02 02:45:31;;;;;;;;;5.25;5.25;;;;;16.61;44.20;101063.41;4991969;28;45552;-80
2022/06/02 02:48:05;;;;;;;;;7.00;6.50;;;;;16.57;44.25;101061.94;4991327;28;45507;-80
2022/06/02 02:50:40;;;;;;;;;5.00;5.00;;;;;16.55;44.54;101071.84;4991772;28;46167;-80
2022/06/02 02:53:14;;;;;;;;;6.00;6.00;;;;;16.52;44.41;101077.41;4991456;28;45849;-79
2022/06/02 02:55:47;;;;;;;;;7.25;5.25;;;;;16.51;44.64;101075.75;4991960;28;45520;-78
2022/06/02 02:58:21;;;;;;;;;5.00;4.50;;;;;16.48;44.77;101078.66;4991976;28;45797;-80
2022/06/02 03:01:13;;;;;;;;;7.50;6.00;;;;;16.45;44.95;101068.34;4991659;28;46165;-79
2022/06/02 03:03:47;;;;;;;;;7.00;6.75;;;;;16.42;44.69;101070.41;4991444;28;45688;-79
2022/06/02 03:06:23;;;;;;;;;7.75;6.00;;;;;16.36;45.06;101066.50;4991413;28;45563;-79
2022/06/02 03:09:07;;;;;;;;;5.00;5.00;;;;;16.36;45.02;101072.63;5030613;28;46506;-78
2022/06/02 03:11:54;;;;;;;;;5.75;5.00;;;;;16.34;44.72;101077.25;5035207;28;48300;-80
2022/06/02 03:14:41;;;;;;;;;6.50;6.00;;;;;16.34;45.15;101068.47;5056416;28;45619;-80
2022/06/02 03:17:13;;;;;;;;;6.50;6.00;;;;;16.31;45.08;101058.97;5051211;28;45581;-79
2022/06/02 03:19:47;;;;;;;;;7.00;7.00;;;;;16.30;45.40;101053.84;5036825;28;45642;-79
2022/06/02 03:22:29;;;;;;;;;6.75;6.25;;;;;16.24;45.37;101062.31;5036852;28;45876;-80
2022/06/02 03:25:25;;;;;;;;;5.25;5.00;;;;;16.24;45.21;101075.53;5036896;28;45554;-80
2022/06/02 03:28:02;;;;;;;;;6.00;5.00;;;;;16.22;45.25;101078.31;5036808;28;45568;-78
2022/06/02 03:34:16;;;;;;;;;6.00;6.00;;;;;16.21;45.58;101081.91;5036122;28;45530;-77
2022/06/02 03:37:19;;;;;;;;;6.50;6.00;;;;;16.20;45.72;101085.50;5036377;28;45721;-79
2022/06/02 03:40:25;;;;;;;;;6.75;6.75;;;;;16.21;45.57;101081.91;5036728;28;45691;-79
2022/06/02 03:43:20;;;;;;;;;6.00;5.25;;;;;16.19;45.73;101083.88;5036638;28;45651;-81
2022/06/02 03:46:22;;;;;;;;;5.75;5.75;;;;;16.17;45.63;101079.66;5035983;28;46005;-80
2022/06/02 03:49:36;;;;;;;;;7.00;6.00;;;;;16.18;45.41;101086.63;5029004;28;45754;-79
2022/06/02 03:52:06;;;;;;;;;7.50;7.50;;;;;16.18;45.71;101081.34;4936299;28;45538;-79
2022/06/02 03:55:13;;;;;;;;;6.50;6.50;;;;;16.18;45.57;101074.25;4935966;28;45745;-79
2022/06/02 03:57:57;;;;;;;;;7.50;6.50;;;;;16.18;45.58;101078.72;4879211;29;45522;-80
2022/06/02 04:03:45;;;;;;;;;6.50;6.25;;;;;16.17;45.44;101072.56;4878951;29;45648;-79
2022/06/02 04:06:53;;;;;;;;;5.75;5.75;;;;;16.16;45.72;101078.00;4878547;29;46686;-79
2022/06/02 04:09:58;;;;;;;;;8.00;6.25;;;;;16.14;45.44;101088.69;4878647;29;46065;-79
2022/06/02 04:18:48;;;;;;;;;7.00;6.75;;;;;16.12;46.00;101089.81;4895340;29;46227;-79
2022/06/02 04:21:52;;;;;;;;;7.00;7.00;;;;;16.10;45.58;101104.94;4897282;29;46324;-80
2022/06/02 04:24:33;;;;;;;;;6.00;5.00;;;;;16.06;45.73;101109.69;4948955;28;45751;-79
2022/06/02 04:27:33;;;;;;;;;6.50;6.50;;;;;16.00;45.90;101086.41;4954885;28;45645;-80
2022/06/02 04:30:04;;;;;;;;;3.75;3.00;;;;;16.04;46.05;101085.16;4949565;28;45728;-81
2022/06/02 04:32:41;;;;;;;;;7.75;7.00;;;;;16.11;45.70;101107.47;5021700;28;46030;-81
2022/06/02 04:35:30;;;;;;;;;7.25;7.25;;;;;16.08;46.13;101106.91;5036145;28;45583;-79
2022/06/02 04:38:23;;;;;;;;;7.50;7.25;;;;;16.11;46.04;101114.56;5035753;28;45872;-79
2022/06/02 04:40:59;;;;;;;;;6.75;6.75;;;;;16.11;46.13;101120.69;5035680;28;45836;-80
2022/06/02 04:43:43;;;;;;;;;8.00;7.75;;;;;16.10;45.69;101110.25;5035459;28;46679;-79
2022/06/02 04:46:14;;;;;;;;;6.00;6.00;;;;;16.09;45.81;101117.34;5035485;28;45802;-77
2022/06/02 04:48:43;;;;;;;;;9.00;7.50;;;;;16.10;45.66;101124.28;5035637;28;45631;-78
2022/06/02 04:51:29;;;;;;;;;7.00;6.00;;;;;16.12;45.82;101117.09;5035708;28;46569;-79
2022/06/02 04:54:30;;;;;;;;;8.00;7.75;;;;;16.14;45.79;101112.47;5035387;28;46057;-78
2022/06/02 04:57:07;;;;;;;;;7.25;7.00;;;;;16.17;45.81;101103.47;5034370;28;45902;-77
2022/06/02 04:59:39;;;;;;;;;7.00;7.00;;;;;16.16;45.84;101104.44;5035420;28;45740;-80
2022/06/02 05:06:09;;;;;;;;;6.75;6.25;;;;;16.22;45.81;101096.81;5034936;28;46198;-80
2022/06/02 05:08:49;;;;;;;;;7.50;6.50;;;;;16.22;45.78;101088.03;5035126;28;45634;-79
2022/06/02 05:11:24;;;;;;;;;8.75;7.00;;;;;16.26;45.99;101092.91;5035195;28;45699;-79
2022/06/02 05:13:56;;;;;;;;;9.00;8.75;;;;;16.31;45.65;101096.00;5034687;28;45593;-79
2022/06/02 05:16:34;;;;;;;;;6.50;6.50;;;;;16.35;45.55;101101.88;5034755;28;46088;-78
2022/06/02 05:23:26;;;;;;;;;12.75;12.25;;;;;16.40;45.29;101106.75;5053299;28;45884;-79
2022/06/02 05:26:01;;;;;;;;;12.25;11.25;;;;;16.42;45.51;101116.22;5054825;28;45625;-79
2022/06/02 05:28:41;;;;;;;;;13.25;11.00;;;;;16.43;45.22;101104.66;5054927;28;46002;-80
2022/06/02 05:31:22;;;;;;;;;6.75;6.75;;;;;16.40;45.31;101102.31;5055066;28;45815;-79
2022/06/02 05:37:44;;;;;;;;;9.50;8.75;;;;;16.55;45.34;101094.81;5060914;28;45671;-80
2022/06/02 05:40:24;;;;;;;;;8.75;8.75;;;;;16.47;45.39;101079.63;5064860;28;45697;-76
2022/06/02 05:43:04;;;;;;;;;0.00;0.00;;;;;16.63;45.18;101102.94;5057560;28;45547;-79
2022/06/02 05:45:56;;;;;;;;;9.25;9.25;;;;;16.68;45.18;101101.56;5036935;28;45460;-80
2022/06/02 05:48:28;;;;;;;;;10.50;10.50;;;;;16.72;45.29;101099.50;5054786;28;45657;-80
2022/06/02 05:51:02;;;;;;;;;8.75;8.00;;;;;16.75;44.99;101093.91;5054321;28;46274;-79
2022/06/02 05:53:51;;;;;;;;;10.75;10.75;;;;;16.80;44.93;101107.56;5054156;28;45673;-78
2022/06/02 05:57:00;;;;;;;;;7.25;7.00;;;;;16.82;45.16;101100.34;5054661;28;45585;-80
2022/06/02 05:59:56;;;;;;;;;9.00;9.00;;;;;16.88;45.04;101113.03;5035917;28;47730;-79
2022/06/02 06:06:18;;;;;;;;;14.25;10.25;;;;;16.94;45.04;101093.97;5053820;28;45633;-79
2022/06/02 06:09:02;;;;;;;;;9.75;8.75;;;;;16.96;44.80;101097.28;5054514;28;45707;-78
2022/06/02 06:11:58;;;;;;;;;8.00;8.00;;;;;16.98;44.61;101095.34;5035909;28;46438;-78
2022/06/02 06:14:43;;;;;;;;;8.00;8.00;;;;;17.00;44.62;101105.81;5053926;28;46422;-78
2022/06/02 06:17:30;;;;;;;;;9.25;9.25;;;;;17.01;44.89;101115.41;5054496;28;45687;-78
2022/06/02 06:23:33;;;;;;;;;8.75;8.75;;;;;16.95;44.48;101100.09;5038496;28;46122;-80
2022/06/02 06:26:21;;;;;;;;;10.50;9.50;;;;;17.02;44.56;101107.31;5033901;28;46625;-79
2022/06/02 06:29:25;;;;;;;;;10.75;9.00;;;;;17.03;44.86;101106.34;5033991;28;45614;-80
2022/06/02 06:32:17;;;;;;;;;10.75;9.25;;;;;17.00;45.01;101095.22;4952703;28;45791;-80
2022/06/02 06:38:32;;;;;;;;;9.00;9.00;;;;;17.03;45.03;101093.13;4952502;28;45813;-75
2022/06/02 06:40:58;;;;;;;;;10.25;10.00;;;;;17.01;45.02;101103.00;4933330;28;45583;-77
2022/06/02 06:43:44;;;;;;;;;14.75;12.00;;;;;16.92;45.41;101093.25;4933311;28;45651;-75
2022/06/02 06:46:21;;;;;;;;;11.50;10.75;;;;;16.98;45.53;101100.66;4933276;28;46884;-77
2022/06/02 06:49:00;;;;;;;;;12.75;11.50;;;;;16.99;45.56;101104.13;4935222;28;46057;-78
2022/06/02 06:51:53;;;;;;;;;9.00;9.00;;;;;16.98;45.41;101110.41;4937163;28;45900;-78
2022/06/02 06:54:34;;;;;;;;;10.00;9.75;;;;;16.97;45.28;101109.56;4936421;28;45641;-77
2022/06/02 06:57:11;;;;;;;;;10.00;8.75;;;;;16.92;45.31;101105.66;4936792;28;45738;-77
2022/06/02 06:59:48;;;;;;;;;11.00;10.25;;;;;16.99;45.32;101112.06;4936458;28;45747;-76
2022/06/02 07:02:23;;;;;;;;;9.50;9.25;;;;;17.03;45.18;101114.31;4936364;28;45588;-76
2022/06/02 07:05:04;;;;;;;;;10.00;10.00;;;;;17.07;45.10;101115.69;4936835;28;45746;-77
2022/06/02 07:07:53;;;;;;;;;10.00;10.00;;;;;17.07;44.92;101107.75;4937053;28;45718;-78
2022/06/02 07:10:19;;;;;;;;;13.25;13.00;;;;;17.18;45.08;101115.56;4994727;28;46172;-77
2022/06/02 07:13:26;;;;;;;;;12.00;11.00;;;;;17.23;45.19;101119.59;4994791;28;45690;-78
2022/06/02 07:16:10;;;;;;;;;13.50;11.00;;;;;17.27;44.98;101110.41;4994485;28;45614;-75
2022/06/02 07:22:02;;;;;;;;;9.00;8.75;;;;;17.26;44.85;101112.22;5038718;28;45742;-75
2022/06/02 07:24:36;;;;;;;;;11.00;9.00;;;;;17.36;44.87;101120.16;5037866;28;46103;-76
2022/06/02 07:27:35;;;;;;;;;12.25;10.50;;;;;17.38;44.89;101120.88;5056519;28;45565;-76
2022/06/02 07:30:20;;;;;;;;;12.75;12.50;;;;;17.43;44.58;101116.00;5056393;28;46561;-75
2022/06/02 07:39:44;;;;;;;;;10.00;9.00;;;;;17.56;44.72;101130.59;5056100;28;45523;-75
2022/06/02 07:42:40;;;;;;;;;10.50;8.75;;;;;17.61;44.54;101132.84;5056257;28;46531;-75
2022/06/02 07:45:25;;;;;;;;;10.50;9.00;;;;;17.62;44.82;101115.97;5056050;28;46217;-76
2022/06/02 07:47:53;;;;;;;;;9.00;7.75;;;;;17.73;44.18;101131.72;5055819;28;45731;-75
2022/06/02 07:50:22;;;;;;;;;7.25;7.25;;;;;17.78;44.40;101132.13;5056171;28;45491;-74
2022/06/02 07:52:51;;;;;;;;;11.00;8.75;;;;;17.85;44.14;101124.47;5055432;28;45916;-75
2022/06/02 07:55:36;;;;;;;;;8.00;7.00;;;;;17.88;43.78;101126.81;5055737;28;45515;-78
2022/06/02 07:58:05;;;;;;;;;9.00;9.00;;;;;17.98;43.97;101120.50;5055785;28;45578;-76
2022/06/02 08:00:49;;;;;;;;;10.50;10.00;;;;;18.06;43.54;101118.94;5054463;28;45448;-80
2022/06/02 08:03:17;;;;;;;;;8.50;7.50;;;;;18.10;43.97;101115.84;5055909;28;46439;-78
2022/06/02 08:06:08;;;;;;;;;9.75;9.00;;;;;18.10;43.95;101099.94;5055288;28;45514;-78
2022/06/02 08:08:54;;;;;;;;;9.00;9.00;;;;;18.21;43.89;101101.56;5055959;28;45600;-79
2022/06/02 08:11:28;;;;;;;;;7.00;7.00;;;;;18.33;43.08;101105.72;5056080;28;45507;-79
2022/06/02 08:14:08;;;;;;;;;6.50;6.00;;;;;18.40;42.92;101096.19;5055549;28;45597;-79
2022/06/02 08:16:55;;;;;;;;;6.00;5.75;;;;;18.49;43.20;101108.56;5055627;28;46455;-79
2022/06/02 08:23:07;;;;;;;;;6.75;6.00;;;;;18.69;42.36;101096.88;5055457;28;45819;-79
2022/06/02 08:26:25;;;;;;;;;7.25;7.25;;;;;18.81;41.96;101093.03;5055974;28;46527;-78
2022/06/02 08:28:51;;;;;;;;;6.50;5.00;;;;;18.96;41.84;101092.50;5051429;28;46208;-78
2022/06/02 08:31:38;;;;;;;;;6.75;5.00;;;;;19.08;41.98;101088.66;5055472;28;45486;-78
2022/06/02 08:37:46;;;;;;;;;4.75;4.50;;;;;19.33;41.63;101079.88;5055081;28;45959;-80
2022/06/02 08:40:29;;;;;;;;;5.00;4.50;;;;;19.45;41.45;101083.19;5055354;28;45602;-81
2022/06/02 08:43:19;;;;;;;;;6.25;6.00;;;;;19.57;41.00;101084.59;5055094;28;45495;-80
2022/06/02 08:46:38;;;;;;;;;4.50;3.75;;;;;19.68;40.85;101079.03;5055475;28;45819;-79
2022/06/02 08:49:16;;;;;;;;;5.00;5.00;;;;;19.76;40.24;101079.06;5007574;28;46833;-80
2022/06/02 08:52:19;;;;;;;;;5.50;4.75;;;;;19.85;40.09;101075.50;5013323;28;46335;-80
2022/06/02 08:55:07;;;;;;;;;7.00;7.00;;;;;19.93;40.02;101064.03;5012835;28;45788;-80
2022/06/02 08:57:44;;;;;;;;;7.00;6.00;;;;;19.97;39.58;101068.06;5013022;28;45825;-79
2022/06/02 09:00:36;;;;;;;;;5.00;5.00;;;;;20.05;39.73;101070.75;5013187;28;45847;-80
2022/06/02 09:03:26;;;;;;;;;6.00;6.00;;;;;20.10;39.75;101068.47;5012541;28;45535;-77
2022/06/02 09:06:13;;;;;;;;;7.00;6.00;;;;;20.15;39.36;101066.16;5012833;28;45830;-77
2022/06/02 09:08:44;;;;;;;;;4.00;4.00;;;;;20.18;39.50;101071.16;5013040;28;45621;-79
2022/06/02 09:11:33;;;;;;;;;5.00;4.50;;;;;20.17;38.96;101061.50;5012518;28;46703;-80
2022/06/02 09:14:17;;;;;;;;;4.75;4.50;;;;;20.25;38.99;101079.31;5012927;28;45484;-80
2022/06/02 09:17:21;;;;;;;;;5.50;5.25;;;;;20.23;42.01;101068.03;5013141;28;45725;-79
2022/06/02 09:23:14;;;;;;;;;6.25;5.50;;;;;20.21;41.35;101057.53;4992030;28;45610;-79
2022/06/02 09:26:07;;;;;;;;;4.00;3.50;;;;;20.26;41.64;101057.88;5012903;28;46376;-79
2022/06/02 09:28:55;;;;;;;;;8.00;7.00;;;;;20.35;39.86;101075.56;5013057;28;45681;-78
2022/06/02 09:31:56;;;;;;;;;6.25;5.25;;;;;20.34;40.74;101071.25;5013033;28;45642;-80
2022/06/02 09:37:45;;;;;;;;;6.75;6.00;;;;;20.32;40.73;101078.56;4953529;28;46145;-79
2022/06/02 09:40:26;;;;;;;;;5.00;4.50;;;;;20.34;41.20;101067.78;4954011;28;45752;-80
2022/06/02 09:43:00;;;;;;;;;6.00;6.00;;;;;20.34;40.01;101075.75;4953587;28;45509;-79
2022/06/02 09:45:49;;;;;;;;;5.25;4.50;;;;;20.42;40.13;101081.09;4953661;28;46788;-79
2022/06/02 09:48:30;;;;;;;;;6.00;5.25;;;;;20.39;40.09;101060.97;4953485;28;46283;-80
2022/06/02 09:54:54;;;;;;;;;5.00;4.25;;;;;20.58;40.22;101077.66;4955043;28;45769;-81
2022/06/02 09:57:55;;;;;;;;;5.00;4.00;;;;;20.64;39.91;101069.84;4972970;28;45674;-79
2022/06/02 10:00:38;;;;;;;;;5.75;5.50;;;;;20.70;38.67;101079.00;4975010;28;46693;-79
2022/06/02 10:03:28;;;;;;;;;6.00;6.00;;;;;20.71;38.96;101068.22;4973113;28;45790;-77
2022/06/02 10:06:09;;;;;;;;;5.00;5.00;;;;;20.76;39.49;101070.38;4972851;28;45767;-77
2022/06/02 10:09:07;;;;;;;;;6.00;5.00;;;;;20.81;39.05;101070.72;5002458;28;48568;-77
2022/06/02 10:15:13;;;;;;;;;5.00;5.00;;;;;20.83;37.30;101060.75;5011403;28;45811;-76
2022/06/02 10:17:57;;;;;;;;;3.75;3.50;;;;;20.83;37.61;101052.75;5012091;28;45571;-77
2022/06/02 10:24:29;;;;;;;;;5.00;4.00;;;;;20.86;36.32;101044.41;5004888;28;45887;-77
2022/06/02 10:27:30;;;;;;;;;5.50;5.00;;;;;20.88;37.43;101045.09;5008528;28;45978;-77
2022/06/02 10:29:56;;;;;;;;;3.00;3.00;;;;;20.91;37.30;101036.75;5011953;28;45953;-77
2022/06/02 10:32:40;;;;;;;;;3.75;3.75;;;;;20.98;37.78;101040.44;5011310;28;45684;-77
2022/06/02 10:38:45;;;;;;;;;4.00;4.00;;;;;21.13;37.64;101040.59;5011332;28;45823;-76
2022/06/02 10:41:39;;;;;;;;;4.00;4.00;;;;;21.20;37.58;101033.66;5011833;28;45771;-77
2022/06/02 10:44:13;;;;;;;;;4.25;4.25;;;;;21.24;37.06;101041.13;5011502;28;46989;-75
2022/06/02 10:47:10;;;;;;;;;3.25;3.25;;;;;21.29;36.92;101038.78;5011407;28;46553;-77
2022/06/02 10:49:56;;;;;;;;;4.00;4.00;;;;;21.34;36.58;101044.47;5052162;28;45838;-77
2022/06/02 10:52:29;;;;;;;;;4.00;4.00;;;;;21.38;35.85;101031.63;5053861;28;45593;-77
2022/06/02 10:55:12;;;;;;;;;4.00;4.00;;;;;21.43;36.54;101033.81;5053278;28;45642;-77
2022/06/02 10:58:06;;;;;;;;;5.00;5.00;;;;;21.51;36.15;101026.59;5053190;28;46680;-77
2022/06/02 11:00:48;;;;;;;;;4.75;3.75;;;;;21.60;36.21;101022.91;5053544;28;45546;-76
2022/06/02 11:03:50;;;;;;;;;4.25;4.25;;;;;21.70;35.51;101026.22;5053417;28;45687;-77
2022/06/02 11:06:25;;;;;;;;;4.75;4.75;;;;;21.80;35.84;101022.53;5053102;28;45432;-77
2022/06/02 11:09:12;;;;;;;;;5.00;4.00;;;;;21.89;35.40;101026.84;5052900;28;46389;-76
2022/06/02 11:12:01;;;;;;;;;5.00;5.00;;;;;21.97;35.69;101014.31;5053247;28;45522;-77
2022/06/02 11:14:54;;;;;;;;;5.00;5.00;;;;;22.08;36.19;101018.44;5053010;28;45882;-76
2022/06/02 11:18:23;;;;;;;;;5.00;5.00;;;;;22.11;34.67;101000.25;5052920;28;46568;-77
2022/06/02 11:24:42;;;;;;;;;4.00;3.50;;;;;22.25;35.32;101006.69;4991067;28;45631;-77
2022/06/02 11:27:41;;;;;;;;;5.50;5.00;;;;;22.31;35.92;100999.81;5053144;28;45838;-77
2022/06/02 11:30:33;;;;;;;;;5.25;5.00;;;;;22.35;35.73;100987.81;5052881;28;45589;-78
2022/06/02 11:34:01;;;;;;;;;4.00;4.00;;;;;22.39;35.82;100983.75;5052329;28;45841;-78
2022/06/02 11:40:00;;;;;;;;;6.50;4.75;;;;;22.44;33.86;100979.56;5014034;28;45763;-78
2022/06/02 11:42:56;;;;;;;;;5.75;5.50;;;;;22.41;34.58;100977.22;5013802;28;46726;-76
2022/06/02 11:45:43;;;;;;;;;5.00;4.00;;;;;22.50;34.29;100976.19;5014034;28;45822;-77
2022/06/02 11:48:54;;;;;;;;;5.00;5.00;;;;;22.57;34.88;100978.94;5020180;28;45711;-84
2022/06/02 11:51:44;;;;;;;;;5.00;5.00;;;;;22.63;32.72;100977.41;4998988;28;45919;-85
2022/06/02 11:54:13;;;;;;;;;4.00;4.00;;;;;22.62;32.64;100981.13;5000976;28;47362;-89
2022/06/02 11:56:54;;;;;;;;;4.75;4.00;;;;;22.55;33.23;100951.59;5001365;28;45633;-79
2022/06/02 11:59:40;;;;;;;;;5.00;5.00;;;;;22.62;33.27;100973.09;5006418;28;45607;-92
2022/06/02 12:02:47;;;;;;;;;3.50;3.50;;;;;22.65;33.79;100970.06;5011038;28;45568;-87
2022/06/02 12:05:53;;;;;;;;;5.00;5.00;;;;;22.71;33.67;100966.69;5007978;28;46918;-83
2022/06/02 12:08:42;;;;;;;;;4.00;4.00;;;;;22.76;33.12;100964.34;5022913;28;46284;-79
2022/06/02 12:11:51;;;;;;;;;5.00;5.00;;;;;22.82;33.63;100966.28;5026689;28;45572;-86
2022/06/02 12:14:50;;;;;;;;;2.50;2.50;;;;;22.85;32.73;100964.06;4983247;28;45662;-81
2022/06/02 12:17:25;;;;;;;;;4.00;4.00;;;;;22.88;32.52;100965.56;4982195;28;45798;-83
2022/06/02 12:20:10;;;;;;;;;4.00;4.00;;;;;22.90;32.37;100958.19;4979824;28;46608;-85
2022/06/02 12:22:57;;;;;;;;;4.00;4.00;;;;;22.94;33.33;100951.50;4976433;28;46077;-91
2022/06/02 12:25:44;;;;;;;;;3.00;3.00;;;;;22.98;33.11;100936.75;4978593;28;45534;-83
2022/06/02 12:28:33;;;;;;;;;4.50;4.50;;;;;23.11;32.71;100939.59;4978990;28;45961;-85
2022/06/02 12:31:36;;;;;;;;;4.00;4.00;;;;;23.21;33.42;100928.69;4978469;28;46063;-81
2022/06/02 12:34:35;;;;;;;;;3.00;2.75;;;;;23.28;32.33;100919.72;4977668;28;45681;-82
2022/06/02 12:40:58;;;;;;;;;4.00;4.00;;;;;23.44;32.64;100906.16;4980178;28;45747;-79
2022/06/02 12:43:55;;;;;;;;;3.50;3.50;;;;;23.52;32.29;100920.50;4982283;28;45939;-79
2022/06/02 12:46:48;;;;;;;;;4.00;4.00;;;;;23.54;32.75;100908.56;4982667;28;45577;-84
2022/06/02 12:49:33;;;;;;;;;4.50;4.50;;;;;23.64;31.46;100919.03;5057803;28;45707;-82
2022/06/02 12:52:10;;;;;;;;;4.50;4.50;;;;;23.64;31.97;100902.97;5064502;28;46714;-82
2022/06/02 12:55:02;;;;;;;;;4.00;3.50;;;;;23.68;31.50;100901.56;5061111;28;46616;-82
2022/06/02 12:57:42;;;;;;;;;3.25;3.00;;;;;23.68;31.60;100907.75;5061868;28;45631;-81
2022/06/02 13:00:24;;;;;;;;;4.25;4.00;;;;;23.67;31.76;100905.25;5065607;28;45623;-79
2022/06/02 13:03:26;;;;;;;;;4.00;4.00;;;;;23.74;31.66;100906.19;5051017;28;47570;-80
2022/06/02 13:09:44;;;;;;;;;3.50;3.50;;;;;23.85;31.19;100895.00;5061904;28;45685;-78
2022/06/02 13:12:37;;;;;;;;;4.75;3.00;;;;;23.90;30.92;100902.44;5062449;28;45781;-82
2022/06/02 13:15:24;;;;;;;;;4.75;4.00;;;;;23.90;30.68;100900.59;5061995;28;47012;-81
2022/06/02 13:18:15;;;;;;;;;5.00;4.00;;;;;23.86;30.09;100895.81;5060151;28;45724;-80
2022/06/02 13:21:18;;;;;;;;;3.00;3.00;;;;;23.83;30.22;100888.97;5063701;28;45657;-82
2022/06/02 13:24:14;;;;;;;;;3.00;3.00;;;;;23.80;30.61;100900.91;5061941;28;45592;-83
2022/06/02 13:27:07;;;;;;;;;3.75;3.75;;;;;23.81;30.67;100897.19;5062816;28;46992;-78
2022/06/02 13:30:29;;;;;;;;;4.00;3.25;;;;;23.84;30.47;100896.00;5047570;28;45907;-83
2022/06/02 13:33:40;;;;;;;;;3.00;3.00;;;;;23.81;30.50;100889.16;5018280;28;45729;-76
2022/06/02 13:40:05;;;;;;;;;4.50;4.00;;;;;23.96;30.19;100907.06;5024331;28;45492;-79
2022/06/02 13:42:48;;;;;;;;;4.00;4.00;;;;;23.96;30.55;100897.19;5021918;28;45573;-81
2022/06/02 13:45:16;;;;;;;;;4.00;3.00;;;;;24.04;30.18;100898.88;5022858;28;45712;-88
2022/06/02 13:48:19;;;;;;;;;3.00;3.00;;;;;24.06;30.02;100897.69;5040254;28;45518;-79
2022/06/02 13:51:12;;;;;;;;;3.25;3.25;;;;;24.10;30.45;100893.63;5023452;28;45595;-88
2022/06/02 13:57:31;;;;;;;;;4.00;3.00;;;;;24.16;29.51;100898.22;5017676;28;45701;-82
2022/06/02 14:00:11;;;;;;;;;3.00;3.00;;;;;24.20;29.66;100886.13;5018263;28;45876;-81
2022/06/02 14:03:01;;;;;;;;;3.00;3.00;;;;;24.22;29.08;100883.25;5023160;28;45600;-82
2022/06/02 14:05:27;;;;;;;;;3.00;3.00;;;;;24.24;29.61;100882.03;5059901;28;46089;-88
2022/06/02 14:08:23;;;;;;;;;3.25;3.25;;;;;24.29;29.29;100880.66;5067041;28;45604;-86
2022/06/02 14:11:06;;;;;;;;;3.75;3.75;;;;;24.32;28.53;100882.94;5071339;28;45214;-91
2022/06/02 14:13:44;;;;;;;;;3.00;2.00;;;;;24.35;29.17;100883.38;5059918;28;47036;-90
2022/06/02 14:16:19;;;;;;;;;3.25;3.00;;;;;24.38;28.77;100885.69;5059210;28;45569;-85
2022/06/02 14:18:58;;;;;;;;;3.50;3.00;;;;;24.36;28.79;100858.25;5059582;28;45871;-87
2022/06/02 14:25:17;;;;;;;;;2.25;2.25;;;;;24.58;28.86;100883.16;5054927;28;46505;-80
2022/06/02 14:28:05;;;;;;;;;2.75;2.50;;;;;24.64;28.79;100864.47;5055296;28;45910;-82
2022/06/02 14:30:46;;;;;;;;;4.25;4.00;;;;;24.70;28.93;100873.59;5055788;28;45649;-82
2022/06/02 14:33:28;;;;;;;;;3.00;2.75;;;;;24.75;28.16;100864.97;5056050;28;45490;-87
2022/06/02 14:39:28;;;;;;;;;2.00;2.00;;;;;24.88;27.90;100847.16;5055439;28;45925;-79
2022/06/02 14:42:03;;;;;;;;;2.50;2.50;;;;;24.96;26.98;100846.16;5055530;28;45575;-85
2022/06/02 14:45:01;;;;;;;;;2.50;2.50;;;;;25.05;27.20;100844.97;5059149;28;45687;-80
2022/06/02 14:47:45;;;;;;;;;3.00;3.00;;;;;25.18;27.12;100849.59;5060155;28;45654;-80
2022/06/02 14:50:28;;;;;;;;;3.00;3.00;;;;;25.29;26.09;100849.03;5058834;28;45762;-79
2022/06/02 14:56:27;;;;;;;;;3.00;3.00;;;;;25.60;26.65;100841.34;5055558;28;45599;-82
2022/06/02 14:59:31;;;;;;;;;3.25;2.00;;;;;25.91;26.03;100836.28;5055252;28;45659;-82
2022/06/02 15:02:10;;;;;;;;;2.00;2.00;;;;;26.71;25.82;100847.94;5048539;28;45953;-80